Alleman, Iowa
Current Conditions -  °F | °C
As of 3:35 PM on Saturday 22 Nov 2014 (Local Time) from KIKV Reporting Station
Overcast Overcast  
Wind Chill: 54°   Ceiling: 1500
Heat Index: 54°   Visibility: 10mi
Dew Point: 48°   Wind: 15mph
Humidity: 82%   Direction: 200°SSW
Pressure: 29.72"   Gusts: 22mph
Location:  41.82°N, 93.61°W
Report Text: KIKV 222135Z AUTO 20013G19KT 10SM OVC015 12/09 A2972 RMK AO2
Loading
Personal Weather Stations






























Interactive Weather Map New forecast layout! Learn more

10-Day Weather Forecast

Advertisements
Track Severe Weather on mobile